createdAt,value
2019-04-21T00:00:45.583Z,8.10
2019-04-21T00:03:12.432Z,8.10
2019-04-21T00:05:52.659Z,8.10
2019-04-21T00:08:21.190Z,7.90
2019-04-21T00:10:38.525Z,8.00
2019-04-21T00:12:52.052Z,8.00
2019-04-21T00:15:09.675Z,8.00
2019-04-21T00:17:24.430Z,7.90
2019-04-21T00:19:45.947Z,7.90
2019-04-21T00:22:19.472Z,8.00
2019-04-21T00:24:41.270Z,7.90
2019-04-21T00:27:14.191Z,7.90
2019-04-21T00:29:33.901Z,7.70
2019-04-21T00:31:52.638Z,7.50
2019-04-21T00:33:58.308Z,7.50
2019-04-21T00:36:24.221Z,7.60
2019-04-21T00:39:14.540Z,7.50
2019-04-21T00:41:27.755Z,7.60
2019-04-21T00:43:42.655Z,7.60
2019-04-21T00:45:57.399Z,7.60
2019-04-21T00:48:32.927Z,7.50
2019-04-21T00:51:10.977Z,7.50
2019-04-21T00:53:30.099Z,7.60
2019-04-21T00:56:04.573Z,7.70
2019-04-21T00:58:11.909Z,7.60
2019-04-21T01:00:32.448Z,7.40
2019-04-21T01:02:56.196Z,7.50
2019-04-21T01:05:18.300Z,7.50
2019-04-21T01:07:36.042Z,7.50
2019-04-21T01:09:54.125Z,7.30
2019-04-21T01:12:19.523Z,7.20
2019-04-21T01:14:51.715Z,7.30
2019-04-21T01:17:03.842Z,7.30
2019-04-21T01:19:28.313Z,7.30
2019-04-21T01:21:28.349Z,7.30
2019-04-21T01:23:50.632Z,7.20
2019-04-21T01:26:26.282Z,7.20
2019-04-21T01:28:51.119Z,7.30
2019-04-21T01:31:13.605Z,7.30
2019-04-21T01:35:58.366Z,7.20
2019-04-21T01:38:31.611Z,7.20
2019-04-21T01:40:51.639Z,7.20
2019-04-21T01:43:11.526Z,7.00
2019-04-21T01:45:37.628Z,7.10
2019-04-21T01:47:59.398Z,7.00
2019-04-21T01:50:20.136Z,6.90
2019-04-21T01:52:50.200Z,7.10
2019-04-21T01:55:25.146Z,7.00
2019-04-21T01:57:34.211Z,7.00
2019-04-21T01:59:51.155Z,7.00
2019-04-21T02:02:19.379Z,7.00
2019-04-21T02:04:53.793Z,7.00
2019-04-21T02:07:07.190Z,7.00
2019-04-21T02:09:27.893Z,6.80
2019-04-21T02:11:55.080Z,6.80
2019-04-21T02:14:15.772Z,6.80
2019-04-21T02:16:40.746Z,6.80
2019-04-21T02:18:56.851Z,6.80
2019-04-21T02:21:17.884Z,6.70
2019-04-21T02:23:46.607Z,6.70
2019-04-21T02:26:09.535Z,6.60
2019-04-21T02:28:36.895Z,6.60
2019-04-21T02:31:06.100Z,6.60
2019-04-21T02:38:08.893Z,6.50
2019-04-21T02:40:30.035Z,6.50
2019-04-21T02:42:56.121Z,6.50
2019-04-21T02:45:17.564Z,6.60
2019-04-21T02:47:45.960Z,6.50
2019-04-21T02:52:31.337Z,6.40
2019-04-21T02:59:37.698Z,6.60
2019-04-21T03:09:30.992Z,6.40
2019-04-21T03:12:01.489Z,6.40
2019-04-21T03:14:16.458Z,6.40
2019-04-21T03:19:11.572Z,6.50
2019-04-21T03:21:22.287Z,6.30
2019-04-21T03:23:46.308Z,6.30
2019-04-21T03:26:19.872Z,6.30
2019-04-21T03:28:32.336Z,6.30
2019-04-21T03:42:57.113Z,6.20
2019-04-21T03:45:06.841Z,6.10
2019-04-21T03:49:54.328Z,6.10
2019-04-21T03:54:37.060Z,6.30
2019-04-21T03:57:11.233Z,6.20
2019-04-21T03:59:11.090Z,6.10
2019-04-21T04:06:56.400Z,6.00
2019-04-21T04:09:26.423Z,5.90
2019-04-21T04:11:43.787Z,5.90
2019-04-21T04:16:52.198Z,5.90
2019-04-21T04:18:52.679Z,5.90
2019-04-21T04:23:42.445Z,5.90
2019-04-21T04:25:59.450Z,5.90
2019-04-21T04:28:18.931Z,6.00
2019-04-21T04:32:56.646Z,5.80
2019-04-21T04:38:03.653Z,5.90
2019-04-21T04:40:14.222Z,5.90
2019-04-21T04:42:41.087Z,5.90
2019-04-21T04:45:05.854Z,5.90
2019-04-21T04:47:16.629Z,6.00
2019-04-21T04:49:48.055Z,6.10
2019-04-21T04:52:31.256Z,6.10
2019-04-21T04:54:43.536Z,6.10
2019-04-21T04:56:47.684Z,6.20
2019-04-21T04:59:33.760Z,6.20
2019-04-21T05:01:48.543Z,6.30
2019-04-21T05:04:10.330Z,6.30
2019-04-21T05:09:03.942Z,6.50
2019-04-21T05:11:22.393Z,6.60
2019-04-21T05:13:39.172Z,6.60
2019-04-21T05:16:02.495Z,6.80
2019-04-21T05:18:13.373Z,6.80
2019-04-21T05:20:29.798Z,6.90
2019-04-21T05:22:53.202Z,7.10
2019-04-21T05:25:15.176Z,7.40
2019-04-21T05:27:39.895Z,7.40
2019-04-21T05:30:10.228Z,7.50
2019-04-21T05:32:37.388Z,7.40
2019-04-21T05:35:02.091Z,7.50
2019-04-21T05:37:29.280Z,7.60
2019-04-21T05:39:48.962Z,7.80
2019-04-21T05:42:02.794Z,8.00
2019-04-21T05:44:41.949Z,8.20
2019-04-21T05:47:11.489Z,8.30
2019-04-21T05:49:35.399Z,8.20
2019-04-21T05:51:55.644Z,8.30
2019-04-21T05:54:29.634Z,8.30
2019-04-21T05:56:49.807Z,8.50
2019-04-21T05:59:08.961Z,8.80
2019-04-21T06:01:33.051Z,8.90
2019-04-21T06:03:57.539Z,9.10
2019-04-21T06:06:21.357Z,9.10
2019-04-21T06:08:52.530Z,9.20
2019-04-21T06:11:09.716Z,9.40
2019-04-21T06:15:56.243Z,9.50
2019-04-21T06:18:17.754Z,9.60
2019-04-21T06:20:38.505Z,9.70
2019-04-21T06:22:56.518Z,10.00
2019-04-21T06:25:41.315Z,10.20
2019-04-21T06:27:40.371Z,10.40
2019-04-21T06:30:22.387Z,11.00
2019-04-21T06:35:08.341Z,15.60
2019-04-21T06:37:39.070Z,16.70
2019-04-21T06:39:42.266Z,17.40
2019-04-21T06:41:59.839Z,17.50
2019-04-21T06:44:16.473Z,17.90
2019-04-21T06:46:41.419Z,17.90
2019-04-21T06:49:02.786Z,18.80
2019-04-21T06:51:27.647Z,19.30
2019-04-21T06:53:52.445Z,19.70
2019-04-21T06:56:15.168Z,19.70
2019-04-21T06:58:35.609Z,20.00
2019-04-21T07:00:56.268Z,20.30
2019-04-21T07:03:19.287Z,21.10
2019-04-21T07:05:42.650Z,20.40
2019-04-21T07:08:14.911Z,20.50
2019-04-21T07:12:45.294Z,20.50
2019-04-21T07:15:03.369Z,21.00
2019-04-21T07:17:45.442Z,21.30
2019-04-21T07:19:57.171Z,20.50
2019-04-21T07:22:19.421Z,21.30
2019-04-21T07:24:37.278Z,21.80
2019-04-21T07:27:02.597Z,22.60
2019-04-21T07:29:28.325Z,22.20
2019-04-21T07:31:55.509Z,22.60
2019-04-21T07:34:09.068Z,23.30
2019-04-21T07:36:43.946Z,23.10
2019-04-21T07:38:54.595Z,23.30
2019-04-21T07:41:02.537Z,22.90
2019-04-21T07:43:29.986Z,23.50
2019-04-21T07:45:51.596Z,23.10
2019-04-21T07:48:19.280Z,23.40
2019-04-21T07:50:52.030Z,23.60
2019-04-21T07:53:21.255Z,23.70
2019-04-21T07:58:02.591Z,23.60
2019-04-21T08:02:49.258Z,23.50
2019-04-21T08:05:20.491Z,23.80
2019-04-21T08:07:42.849Z,24.10
2019-04-21T08:09:55.106Z,23.50
2019-04-21T08:12:14.552Z,22.50
2019-04-21T08:14:44.124Z,23.00
2019-04-21T08:17:04.865Z,23.20
2019-04-21T08:19:25.250Z,23.50
2019-04-21T08:21:55.429Z,23.90
2019-04-21T08:24:13.366Z,23.80
2019-04-21T08:26:38.205Z,24.60
2019-04-21T08:29:12.608Z,24.10
2019-04-21T08:31:18.412Z,24.00
2019-04-21T08:33:50.300Z,23.60
2019-04-21T08:38:20.054Z,24.60
2019-04-21T08:40:49.700Z,24.30
2019-04-21T08:43:08.874Z,24.20
2019-04-21T08:45:36.176Z,24.50
2019-04-21T08:50:17.823Z,24.50
2019-04-21T08:52:42.498Z,24.50
2019-04-21T08:55:05.638Z,23.70
2019-04-21T08:57:33.705Z,24.10
2019-04-21T08:59:58.862Z,23.90
2019-04-21T09:02:23.721Z,24.80
2019-04-21T09:04:42.314Z,24.50
2019-04-21T09:07:12.928Z,24.00
2019-04-21T09:09:31.533Z,23.90
2019-04-21T09:11:54.303Z,23.80
2019-04-21T09:14:13.105Z,23.40
2019-04-21T09:16:33.883Z,24.10
2019-04-21T09:18:49.787Z,24.70
2019-04-21T09:21:19.464Z,23.70
2019-04-21T09:23:39.212Z,24.40
2019-04-21T09:26:10.538Z,23.80
2019-04-21T09:28:24.379Z,24.40
2019-04-21T09:30:33.781Z,24.10
2019-04-21T09:32:55.069Z,24.40
2019-04-21T09:35:15.438Z,23.80
2019-04-21T09:37:44.445Z,23.50
2019-04-21T09:40:00.906Z,24.00
2019-04-21T09:42:27.049Z,24.80
2019-04-21T09:44:45.806Z,24.70
2019-04-21T09:47:08.833Z,24.40
2019-04-21T09:49:33.958Z,24.70
2019-04-21T09:51:55.153Z,23.50
2019-04-21T09:54:23.140Z,24.10
2019-04-21T09:56:45.574Z,24.00
2019-04-21T09:59:10.119Z,23.50
2019-04-21T10:01:28.666Z,22.90
2019-04-21T10:03:47.387Z,23.30
2019-04-21T10:06:06.587Z,24.10
2019-04-21T10:08:27.228Z,24.20
2019-04-21T10:10:51.116Z,23.70
2019-04-21T10:13:12.895Z,24.80
2019-04-21T10:15:33.849Z,24.30
2019-04-21T10:17:56.124Z,24.30
2019-04-21T10:20:18.451Z,24.60
2019-04-21T10:22:39.331Z,24.30
2019-04-21T10:25:00.613Z,25.10
2019-04-21T10:27:25.464Z,25.70
2019-04-21T10:29:48.559Z,25.00
2019-04-21T10:32:09.408Z,23.90
2019-04-21T10:34:29.797Z,24.00
2019-04-21T10:36:51.170Z,25.00
2019-04-21T10:39:11.620Z,25.30
2019-04-21T10:41:33.679Z,25.60
2019-04-21T10:43:55.407Z,24.80
2019-04-21T10:46:19.142Z,24.70
2019-04-21T10:48:40.978Z,25.50
2019-04-21T10:51:01.515Z,25.80
2019-04-21T10:53:27.033Z,25.40
2019-04-21T10:55:59.049Z,25.10
2019-04-21T10:58:11.078Z,25.70
2019-04-21T11:00:32.319Z,24.50
2019-04-21T11:03:10.905Z,25.00
2019-04-21T11:05:32.389Z,24.60
2019-04-21T11:08:08.120Z,25.30
2019-04-21T11:10:18.180Z,24.70
2019-04-21T11:12:42.760Z,24.80
2019-04-21T11:15:05.260Z,25.00
2019-04-21T11:17:30.242Z,25.30
2019-04-21T11:19:50.694Z,25.90
2019-04-21T11:22:11.090Z,26.00
2019-04-21T11:24:31.493Z,25.70
2019-04-21T11:26:52.042Z,24.30
2019-04-21T11:29:12.835Z,24.90
2019-04-21T11:31:33.456Z,26.00
2019-04-21T11:33:53.743Z,25.90
2019-04-21T11:36:15.396Z,25.40
2019-04-21T11:39:05.600Z,24.60
2019-04-21T11:41:09.728Z,25.90
2019-04-21T11:43:32.972Z,26.10
2019-04-21T11:45:53.079Z,25.70
2019-04-21T11:48:14.756Z,25.60
2019-04-21T11:50:35.088Z,24.80
2019-04-21T11:52:56.817Z,25.20
2019-04-21T11:55:18.761Z,24.90
2019-04-21T11:57:42.802Z,25.50
2019-04-21T12:00:01.751Z,25.60
2019-04-21T12:02:23.558Z,25.20
2019-04-21T12:04:43.924Z,25.80
2019-04-21T12:07:05.088Z,25.00
2019-04-21T12:09:25.177Z,25.20
2019-04-21T12:11:45.374Z,24.70
2019-04-21T12:14:05.921Z,25.50
2019-04-21T12:16:25.994Z,25.90
2019-04-21T12:18:47.167Z,26.80
2019-04-21T12:21:09.790Z,26.40
2019-04-21T12:23:30.327Z,25.80
2019-04-21T12:25:51.885Z,25.40
2019-04-21T12:28:12.217Z,26.30
2019-04-21T12:30:33.540Z,26.40
2019-04-21T12:32:58.095Z,26.30
2019-04-21T12:35:17.915Z,26.90
2019-04-21T12:37:38.958Z,26.70
2019-04-21T12:40:00.571Z,26.50
2019-04-21T12:42:22.796Z,27.00
2019-04-21T12:44:43.407Z,25.50
2019-04-21T12:47:05.743Z,25.80
2019-04-21T12:49:25.907Z,25.90
2019-04-21T12:51:46.238Z,25.50
2019-04-21T12:54:07.986Z,25.10
2019-04-21T12:56:31.649Z,24.50
2019-04-21T12:58:53.223Z,24.80
2019-04-21T13:01:14.699Z,25.30
2019-04-21T13:03:35.572Z,24.80
2019-04-21T13:05:55.931Z,25.80
2019-04-21T13:08:17.673Z,26.20
2019-04-21T13:10:38.225Z,26.50
2019-04-21T13:12:59.678Z,26.50
2019-04-21T13:15:20.224Z,26.20
2019-04-21T13:17:44.356Z,26.50
2019-04-21T13:20:07.756Z,26.00
2019-04-21T13:22:28.115Z,25.00
2019-04-21T13:24:49.623Z,24.90
2019-04-21T13:27:11.346Z,26.10
2019-04-21T13:29:32.281Z,26.90
2019-04-21T13:31:54.160Z,27.00
2019-04-21T13:34:15.871Z,26.50
2019-04-21T13:36:36.295Z,26.50
2019-04-21T13:39:32.730Z,26.40
2019-04-21T13:41:41.860Z,26.40
2019-04-21T13:43:50.923Z,25.90
2019-04-21T13:46:12.062Z,27.60
2019-04-21T13:48:34.751Z,28.80
2019-04-21T13:50:57.304Z,28.60
2019-04-21T13:53:20.874Z,28.20
2019-04-21T13:55:42.621Z,27.10
2019-04-21T13:58:04.191Z,26.70
2019-04-21T14:00:25.040Z,27.20
2019-04-21T14:02:46.841Z,27.20
2019-04-21T14:05:11.811Z,26.60
2019-04-21T14:07:32.179Z,26.30
2019-04-21T14:09:57.615Z,26.30
2019-04-21T14:12:14.446Z,27.10
2019-04-21T14:14:34.657Z,27.00
2019-04-21T14:16:56.050Z,27.30
2019-04-21T14:19:17.261Z,26.40
2019-04-21T14:21:37.322Z,26.30
2019-04-21T14:24:01.352Z,26.20
2019-04-21T14:26:22.489Z,26.70
2019-04-21T14:28:43.030Z,27.10
2019-04-21T14:31:04.289Z,27.60
2019-04-21T14:33:25.636Z,28.00
2019-04-21T14:35:47.023Z,27.80
2019-04-21T14:38:08.939Z,27.40
2019-04-21T14:40:31.376Z,27.80
2019-04-21T14:42:52.068Z,27.60
2019-04-21T14:45:16.839Z,28.30
2019-04-21T14:47:40.022Z,27.90
2019-04-21T14:50:15.438Z,28.40
2019-04-21T14:52:37.088Z,28.50
2019-04-21T14:55:03.092Z,27.70
2019-04-21T14:57:23.508Z,28.30
2019-04-21T14:59:44.773Z,27.60
2019-04-21T15:02:05.687Z,26.10
2019-04-21T15:04:27.903Z,26.80
2019-04-21T15:06:49.556Z,26.90
2019-04-21T15:09:11.126Z,26.90
2019-04-21T15:11:31.928Z,27.50
2019-04-21T15:13:53.253Z,27.10
2019-04-21T15:16:15.079Z,27.20
2019-04-21T15:18:36.839Z,27.60
2019-04-21T15:20:57.536Z,27.00
2019-04-21T15:23:18.071Z,27.00
2019-04-21T15:25:38.591Z,27.50
2019-04-21T15:28:01.170Z,27.90
2019-04-21T15:30:22.592Z,27.50
2019-04-21T15:32:44.281Z,26.90
2019-04-21T15:35:06.981Z,26.70
2019-04-21T15:37:29.003Z,27.20
2019-04-21T15:39:49.316Z,27.00
2019-04-21T15:42:10.409Z,27.30
2019-04-21T15:44:30.607Z,25.90
2019-04-21T15:46:52.092Z,24.50
2019-04-21T15:49:13.362Z,24.00
2019-04-21T15:51:33.767Z,23.70
2019-04-21T15:53:55.868Z,23.30
2019-04-21T15:56:20.573Z,23.20
2019-04-21T15:59:00.986Z,23.30
2019-04-21T16:01:22.874Z,23.00
2019-04-21T16:03:44.763Z,22.70
2019-04-21T16:06:05.627Z,22.50
2019-04-21T16:08:27.121Z,22.30
2019-04-21T16:10:54.907Z,22.40
2019-04-21T16:13:09.844Z,22.30
2019-04-21T16:15:30.863Z,22.20
2019-04-21T16:17:55.238Z,22.10
2019-04-21T16:20:17.540Z,21.90
2019-04-21T16:22:38.905Z,21.90
2019-04-21T16:25:03.470Z,21.80
2019-04-21T16:27:23.846Z,21.50
2019-04-21T16:29:44.040Z,21.60
2019-04-21T16:32:04.919Z,21.60
2019-04-21T16:34:36.080Z,21.60
2019-04-21T16:36:47.655Z,21.60
2019-04-21T16:39:09.482Z,21.60
2019-04-21T16:41:29.742Z,21.40
2019-04-21T16:43:51.372Z,21.40
2019-04-21T16:46:13.751Z,21.40
2019-04-21T16:48:35.655Z,21.30
2019-04-21T16:50:57.409Z,21.10
2019-04-21T16:53:19.949Z,21.10
2019-04-21T16:55:42.013Z,20.90
2019-04-21T16:58:16.474Z,20.80
2019-04-21T17:00:40.772Z,20.90
2019-04-21T17:02:54.728Z,20.80
2019-04-21T17:05:18.212Z,20.70
2019-04-21T17:07:38.813Z,20.60
2019-04-21T17:09:59.838Z,20.50
2019-04-21T17:12:20.605Z,20.40
2019-04-21T17:14:57.112Z,20.50
2019-04-21T17:17:35.161Z,20.30
2019-04-21T17:19:37.944Z,20.30
2019-04-21T17:21:53.198Z,20.20
2019-04-21T17:24:14.602Z,20.20
2019-04-21T17:26:39.003Z,20.00
2019-04-21T17:28:58.499Z,19.90
2019-04-21T17:31:20.657Z,19.80
2019-04-21T17:33:41.430Z,19.70
2019-04-21T17:36:02.943Z,19.60
2019-04-21T17:38:23.922Z,19.60
2019-04-21T17:40:44.229Z,19.50
2019-04-21T17:43:09.125Z,19.40
2019-04-21T17:45:27.074Z,19.40
2019-04-21T17:47:54.630Z,19.30
2019-04-21T17:50:11.700Z,19.20
2019-04-21T17:52:37.958Z,19.20
2019-04-21T17:55:10.370Z,19.10
2019-04-21T17:57:36.830Z,19.10
2019-04-21T18:00:06.945Z,19.00
2019-04-21T18:02:35.103Z,18.90
2019-04-21T18:04:58.435Z,18.90
2019-04-21T18:07:26.381Z,18.80
2019-04-21T18:09:51.803Z,18.70
2019-04-21T18:12:06.828Z,18.60
2019-04-21T18:14:09.422Z,18.50
2019-04-21T18:16:37.336Z,18.30
2019-04-21T18:18:53.013Z,18.20
2019-04-21T18:21:26.968Z,18.10
2019-04-21T18:23:58.520Z,18.00
2019-04-21T18:26:24.733Z,17.90
2019-04-21T18:28:32.591Z,17.70
2019-04-21T18:30:56.554Z,17.50
2019-04-21T18:33:23.517Z,17.40
2019-04-21T18:36:00.633Z,17.20
2019-04-21T18:38:29.232Z,17.20
2019-04-21T18:40:48.181Z,17.10
2019-04-21T18:43:42.158Z,17.00
2019-04-21T18:46:09.371Z,16.90
2019-04-21T18:48:19.153Z,16.80
2019-04-21T18:50:46.302Z,16.70
2019-04-21T18:53:32.588Z,16.60
2019-04-21T18:55:45.120Z,16.50
2019-04-21T18:58:03.241Z,16.50
2019-04-21T19:00:31.094Z,16.40
2019-04-21T19:02:51.736Z,16.40
2019-04-21T19:05:21.055Z,16.20
2019-04-21T19:07:58.343Z,16.10
2019-04-21T19:10:29.606Z,15.90
2019-04-21T19:13:15.969Z,15.90
2019-04-21T19:14:57.876Z,15.90
2019-04-21T19:19:58.798Z,15.70
2019-04-21T19:22:10.451Z,15.50
2019-04-21T19:24:33.744Z,15.50
2019-04-21T19:26:59.977Z,15.50
2019-04-21T19:29:23.959Z,15.40
2019-04-21T19:31:38.279Z,15.30
2019-04-21T19:33:54.520Z,15.30
2019-04-21T19:36:05.571Z,15.20
2019-04-21T19:38:35.481Z,15.10
2019-04-21T19:41:05.315Z,15.00
2019-04-21T19:43:31.523Z,15.00
2019-04-21T19:45:41.946Z,15.00
2019-04-21T19:48:15.418Z,14.80
2019-04-21T19:50:37.808Z,14.80
2019-04-21T19:52:49.731Z,14.70
2019-04-21T19:55:00.571Z,14.70
2019-04-21T19:57:21.236Z,14.60
2019-04-21T19:59:48.564Z,14.50
2019-04-21T20:02:06.791Z,14.30
2019-04-21T20:04:34.332Z,14.30
2019-04-21T20:07:01.762Z,14.20
2019-04-21T20:09:27.770Z,14.10
2019-04-21T20:11:47.552Z,14.00
2019-04-21T20:14:37.617Z,14.00
2019-04-21T20:16:37.568Z,13.80
2019-04-21T20:18:45.660Z,13.70
2019-04-21T20:21:02.269Z,13.80
2019-04-21T20:23:29.814Z,13.90
2019-04-21T20:25:49.808Z,13.80
2019-04-21T20:28:14.661Z,13.80
2019-04-21T20:30:42.366Z,13.70
2019-04-21T20:33:18.070Z,13.70
2019-04-21T20:35:38.461Z,13.60
2019-04-21T20:37:47.879Z,13.50
2019-04-21T20:40:02.267Z,13.50
2019-04-21T20:42:27.971Z,13.50
2019-04-21T20:45:16.156Z,13.40
2019-04-21T20:47:15.949Z,13.40
2019-04-21T20:49:33.828Z,13.40
2019-04-21T20:52:14.349Z,13.30
2019-04-21T20:54:24.630Z,13.50
2019-04-21T20:56:49.716Z,13.40
2019-04-21T20:59:08.046Z,13.30
2019-04-21T21:01:43.330Z,13.30
2019-04-21T21:03:47.958Z,13.20
2019-04-21T21:06:14.445Z,13.20
2019-04-21T21:08:40.215Z,13.10
2019-04-21T21:10:55.152Z,13.00
2019-04-21T21:13:26.572Z,12.90
2019-04-21T21:15:51.426Z,12.90
2019-04-21T21:18:22.791Z,12.80
2019-04-21T21:20:30.489Z,12.60
2019-04-21T21:22:46.832Z,12.70
2019-04-21T21:25:24.703Z,12.50
2019-04-21T21:27:33.471Z,12.50
2019-04-21T21:29:56.790Z,12.50
2019-04-21T21:32:21.940Z,12.50
2019-04-21T21:34:47.858Z,12.40
2019-04-21T21:37:24.390Z,12.40
2019-04-21T21:39:36.332Z,12.40
2019-04-21T21:41:46.429Z,12.30
2019-04-21T21:44:05.840Z,12.20
2019-04-21T21:46:34.125Z,12.10
2019-04-21T21:48:53.840Z,12.10
2019-04-21T21:51:17.983Z,12.30
2019-04-21T21:53:30.783Z,12.30
2019-04-21T21:55:50.986Z,12.50
2019-04-21T21:58:12.345Z,12.30
2019-04-21T22:00:36.935Z,12.00
2019-04-21T22:03:13.608Z,11.90
2019-04-21T22:05:27.983Z,12.00
2019-04-21T22:07:46.728Z,11.90
2019-04-21T22:10:08.513Z,11.80
2019-04-21T22:12:41.324Z,11.80
2019-04-21T22:14:53.571Z,11.90
2019-04-21T22:17:33.157Z,11.80
2019-04-21T22:19:58.040Z,11.90
2019-04-21T22:22:14.082Z,11.80
2019-04-21T22:24:35.002Z,11.60
2019-04-21T22:26:43.275Z,11.30
2019-04-21T22:29:07.740Z,11.10
2019-04-21T22:31:32.172Z,11.00
2019-04-21T22:33:55.101Z,11.10
2019-04-21T22:36:26.464Z,11.10
2019-04-21T22:38:47.530Z,11.10
2019-04-21T22:41:11.963Z,11.00
2019-04-21T22:43:29.153Z,11.00
2019-04-21T22:45:45.383Z,10.90
2019-04-21T22:48:12.438Z,10.80
2019-04-21T22:50:34.953Z,10.80
2019-04-21T22:53:01.514Z,10.60
2019-04-21T22:55:23.179Z,10.50
2019-04-21T22:57:47.824Z,10.40
2019-04-21T23:00:07.891Z,10.30
2019-04-21T23:02:32.166Z,10.20
2019-04-21T23:04:56.243Z,10.20
2019-04-21T23:07:16.995Z,10.10
2019-04-21T23:09:37.058Z,10.20
2019-04-21T23:12:00.040Z,10.20
2019-04-21T23:14:19.316Z,10.20
2019-04-21T23:16:42.242Z,10.30
2019-04-21T23:19:22.609Z,10.20
2019-04-21T23:21:48.923Z,10.20
2019-04-21T23:24:05.842Z,10.20
2019-04-21T23:26:29.689Z,10.00
2019-04-21T23:28:52.452Z,9.90
2019-04-21T23:31:21.419Z,10.00
2019-04-21T23:33:20.196Z,10.00
2019-04-21T23:35:42.408Z,10.10
2019-04-21T23:38:04.734Z,10.00
2019-04-21T23:40:25.266Z,10.10
2019-04-21T23:42:47.122Z,10.00
2019-04-21T23:45:08.725Z,10.00
2019-04-21T23:47:44.355Z,10.00
2019-04-21T23:50:00.289Z,9.80
2019-04-21T23:52:17.573Z,9.70
2019-04-21T23:54:37.651Z,9.80
2019-04-21T23:57:05.108Z,9.70
2019-04-21T23:59:20.646Z,9.70
